sensor_id;sensor_type;location;lat;lon;timestamp;temperature;humidity
17495;DHT22;8864;51.970;4.614;2022-07-05T00:00:57;24.10;58.00
17495;DHT22;8864;51.970;4.614;2022-07-05T00:03:24;24.10;58.00
17495;DHT22;8864;51.970;4.614;2022-07-05T00:05:51;24.10;58.10
17495;DHT22;8864;51.970;4.614;2022-07-05T00:08:18;24.10;58.10
17495;DHT22;8864;51.970;4.614;2022-07-05T00:10:46;24.10;58.30
17495;DHT22;8864;51.970;4.614;2022-07-05T00:13:13;24.10;58.30
17495;DHT22;8864;51.970;4.614;2022-07-05T00:15:41;24.10;58.50
17495;DHT22;8864;51.970;4.614;2022-07-05T00:18:08;24.10;58.60
17495;DHT22;8864;51.970;4.614;2022-07-05T00:20:35;24.10;58.60
17495;DHT22;8864;51.970;4.614;2022-07-05T00:23:02;24.10;58.60
17495;DHT22;8864;51.970;4.614;2022-07-05T00:25:29;24.00;58.70
17495;DHT22;8864;51.970;4.614;2022-07-05T00:27:57;24.00;58.60
17495;DHT22;8864;51.970;4.614;2022-07-05T00:30:24;24.00;59.30
17495;DHT22;8864;51.970;4.614;2022-07-05T00:32:51;24.00;58.60
17495;DHT22;8864;51.970;4.614;2022-07-05T00:35:18;24.00;58.70
17495;DHT22;8864;51.970;4.614;2022-07-05T00:37:44;24.00;58.70
17495;DHT22;8864;51.970;4.614;2022-07-05T00:40:11;24.00;58.80
17495;DHT22;8864;51.970;4.614;2022-07-05T00:42:38;24.00;58.80
17495;DHT22;8864;51.970;4.614;2022-07-05T00:45:08;24.00;58.80
17495;DHT22;8864;51.970;4.614;2022-07-05T00:47:35;24.00;58.80
17495;DHT22;8864;51.970;4.614;2022-07-05T00:50:02;24.10;58.90
17495;DHT22;8864;51.970;4.614;2022-07-05T00:52:30;24.10;58.90
17495;DHT22;8864;51.970;4.614;2022-07-05T00:54:57;24.00;58.80
17495;DHT22;8864;51.970;4.614;2022-07-05T00:57:24;24.00;58.80
17495;DHT22;8864;51.970;4.614;2022-07-05T00:59:51;24.00;58.80
17495;DHT22;8864;51.970;4.614;2022-07-05T01:02:19;24.00;58.80
17495;DHT22;8864;51.970;4.614;2022-07-05T01:04:48;24.00;58.80
17495;DHT22;8864;51.970;4.614;2022-07-05T01:07:17;24.00;58.80
17495;DHT22;8864;51.970;4.614;2022-07-05T01:09:44;24.00;58.80
17495;DHT22;8864;51.970;4.614;2022-07-05T01:12:11;24.00;58.80
17495;DHT22;8864;51.970;4.614;2022-07-05T01:14:38;24.00;58.80
17495;DHT22;8864;51.970;4.614;2022-07-05T01:17:07;24.00;58.80
17495;DHT22;8864;51.970;4.614;2022-07-05T01:19:36;24.00;58.70
17495;DHT22;8864;51.970;4.614;2022-07-05T01:22:06;24.00;58.70
17495;DHT22;8864;51.970;4.614;2022-07-05T01:24:38;24.00;58.60
17495;DHT22;8864;51.970;4.614;2022-07-05T01:27:06;23.90;58.60
17495;DHT22;8864;51.970;4.614;2022-07-05T01:29:32;23.90;58.60
17495;DHT22;8864;51.970;4.614;2022-07-05T01:31:59;23.90;58.50
17495;DHT22;8864;51.970;4.614;2022-07-05T01:34:27;24.00;58.70
17495;DHT22;8864;51.970;4.614;2022-07-05T01:36:54;23.90;58.60
17495;DHT22;8864;51.970;4.614;2022-07-05T01:39:21;23.90;58.70
17495;DHT22;8864;51.970;4.614;2022-07-05T01:41:49;23.90;58.70
17495;DHT22;8864;51.970;4.614;2022-07-05T01:44:16;23.90;58.60
17495;DHT22;8864;51.970;4.614;2022-07-05T01:46:43;23.80;58.50
17495;DHT22;8864;51.970;4.614;2022-07-05T01:49:12;23.80;58.50
17495;DHT22;8864;51.970;4.614;2022-07-05T01:51:44;23.80;58.50
17495;DHT22;8864;51.970;4.614;2022-07-05T01:54:12;23.80;58.60
17495;DHT22;8864;51.970;4.614;2022-07-05T01:56:39;23.80;58.60
17495;DHT22;8864;51.970;4.614;2022-07-05T01:59:07;23.80;58.60
17495;DHT22;8864;51.970;4.614;2022-07-05T02:01:36;23.80;58.60
17495;DHT22;8864;51.970;4.614;2022-07-05T02:04:04;23.80;58.70
17495;DHT22;8864;51.970;4.614;2022-07-05T02:06:31;23.70;58.60
17495;DHT22;8864;51.970;4.614;2022-07-05T02:08:59;23.70;58.60
17495;DHT22;8864;51.970;4.614;2022-07-05T02:11:26;23.70;58.60
17495;DHT22;8864;51.970;4.614;2022-07-05T02:13:53;23.70;58.50
17495;DHT22;8864;51.970;4.614;2022-07-05T02:16:25;23.70;58.60
17495;DHT22;8864;51.970;4.614;2022-07-05T02:18:52;23.70;58.60
17495;DHT22;8864;51.970;4.614;2022-07-05T02:21:19;23.70;58.60
17495;DHT22;8864;51.970;4.614;2022-07-05T02:23:46;23.70;58.60
17495;DHT22;8864;51.970;4.614;2022-07-05T02:26:13;23.70;58.70
17495;DHT22;8864;51.970;4.614;2022-07-05T02:28:40;23.70;58.60
17495;DHT22;8864;51.970;4.614;2022-07-05T02:31:07;23.60;58.60
17495;DHT22;8864;51.970;4.614;2022-07-05T02:33:36;23.60;58.70
17495;DHT22;8864;51.970;4.614;2022-07-05T02:36:07;23.60;58.80
17495;DHT22;8864;51.970;4.614;2022-07-05T02:38:35;23.60;58.80
17495;DHT22;8864;51.970;4.614;2022-07-05T02:41:04;23.60;58.90
17495;DHT22;8864;51.970;4.614;2022-07-05T02:43:32;23.60;58.80
17495;DHT22;8864;51.970;4.614;2022-07-05T02:45:59;23.60;58.90
17495;DHT22;8864;51.970;4.614;2022-07-05T02:48:26;23.60;59.00
17495;DHT22;8864;51.970;4.614;2022-07-05T02:50:55;23.60;59.00
17495;DHT22;8864;51.970;4.614;2022-07-05T02:53:21;23.60;59.30
17495;DHT22;8864;51.970;4.614;2022-07-05T02:55:48;23.60;59.10
17495;DHT22;8864;51.970;4.614;2022-07-05T02:58:15;23.60;59.00
17495;DHT22;8864;51.970;4.614;2022-07-05T03:00:43;23.60;59.10
17495;DHT22;8864;51.970;4.614;2022-07-05T03:03:10;23.50;59.00
17495;DHT22;8864;51.970;4.614;2022-07-05T03:05:37;23.60;59.10
17495;DHT22;8864;51.970;4.614;2022-07-05T03:08:05;23.50;59.00
17495;DHT22;8864;51.970;4.614;2022-07-05T03:10:33;23.50;58.90
17495;DHT22;8864;51.970;4.614;2022-07-05T03:13:00;23.50;59.00
17495;DHT22;8864;51.970;4.614;2022-07-05T03:15:26;23.50;59.00
17495;DHT22;8864;51.970;4.614;2022-07-05T03:17:53;23.50;59.00
17495;DHT22;8864;51.970;4.614;2022-07-05T03:20:20;23.50;59.10
17495;DHT22;8864;51.970;4.614;2022-07-05T03:22:47;23.50;59.20
17495;DHT22;8864;51.970;4.614;2022-07-05T03:25:15;23.50;59.20
17495;DHT22;8864;51.970;4.614;2022-07-05T03:27:42;23.50;59.20
17495;DHT22;8864;51.970;4.614;2022-07-05T03:30:10;23.50;59.30
17495;DHT22;8864;51.970;4.614;2022-07-05T03:32:37;23.50;59.30
17495;DHT22;8864;51.970;4.614;2022-07-05T03:38:06;23.40;59.30
17495;DHT22;8864;51.970;4.614;2022-07-05T03:40:35;23.50;59.60
17495;DHT22;8864;51.970;4.614;2022-07-05T03:43:01;23.40;59.70
17495;DHT22;8864;51.970;4.614;2022-07-05T03:45:28;23.40;59.90
17495;DHT22;8864;51.970;4.614;2022-07-05T03:47:57;23.40;59.90
17495;DHT22;8864;51.970;4.614;2022-07-05T03:50:24;23.40;59.90
17495;DHT22;8864;51.970;4.614;2022-07-05T03:52:51;23.40;59.90
17495;DHT22;8864;51.970;4.614;2022-07-05T03:55:18;23.40;60.00
17495;DHT22;8864;51.970;4.614;2022-07-05T03:57:47;23.40;60.00
17495;DHT22;8864;51.970;4.614;2022-07-05T04:00:14;23.40;60.10
17495;DHT22;8864;51.970;4.614;2022-07-05T04:02:41;23.40;60.20
17495;DHT22;8864;51.970;4.614;2022-07-05T04:05:08;23.40;60.30
17495;DHT22;8864;51.970;4.614;2022-07-05T04:07:47;23.40;60.30
17495;DHT22;8864;51.970;4.614;2022-07-05T04:10:14;23.40;60.50
17495;DHT22;8864;51.970;4.614;2022-07-05T04:12:40;23.40;60.50
17495;DHT22;8864;51.970;4.614;2022-07-05T04:15:09;23.40;60.50
17495;DHT22;8864;51.970;4.614;2022-07-05T04:17:46;23.40;60.50
17495;DHT22;8864;51.970;4.614;2022-07-05T04:20:12;23.40;60.50
17495;DHT22;8864;51.970;4.614;2022-07-05T04:22:39;23.40;60.60
17495;DHT22;8864;51.970;4.614;2022-07-05T04:25:07;23.40;60.50
17495;DHT22;8864;51.970;4.614;2022-07-05T04:27:47;23.40;60.50
17495;DHT22;8864;51.970;4.614;2022-07-05T04:30:16;23.40;60.60
17495;DHT22;8864;51.970;4.614;2022-07-05T04:32:43;23.40;60.80
17495;DHT22;8864;51.970;4.614;2022-07-05T04:35:11;23.40;60.90
17495;DHT22;8864;51.970;4.614;2022-07-05T04:37:38;23.40;61.00
17495;DHT22;8864;51.970;4.614;2022-07-05T04:40:07;23.40;61.30
17495;DHT22;8864;51.970;4.614;2022-07-05T04:42:35;23.40;61.40
17495;DHT22;8864;51.970;4.614;2022-07-05T04:45:02;23.40;61.50
17495;DHT22;8864;51.970;4.614;2022-07-05T04:47:30;23.40;61.50
17495;DHT22;8864;51.970;4.614;2022-07-05T04:49:57;23.40;61.50
17495;DHT22;8864;51.970;4.614;2022-07-05T04:52:24;23.40;61.50
17495;DHT22;8864;51.970;4.614;2022-07-05T04:54:51;23.40;61.50
17495;DHT22;8864;51.970;4.614;2022-07-05T04:57:18;23.40;61.60
17495;DHT22;8864;51.970;4.614;2022-07-05T04:59:45;23.40;61.60
17495;DHT22;8864;51.970;4.614;2022-07-05T05:02:12;23.40;61.70
17495;DHT22;8864;51.970;4.614;2022-07-05T05:04:40;23.40;61.70
17495;DHT22;8864;51.970;4.614;2022-07-05T05:07:07;23.40;61.90
17495;DHT22;8864;51.970;4.614;2022-07-05T05:09:34;23.50;62.00
17495;DHT22;8864;51.970;4.614;2022-07-05T05:12:02;23.40;62.00
17495;DHT22;8864;51.970;4.614;2022-07-05T05:14:29;23.50;62.00
17495;DHT22;8864;51.970;4.614;2022-07-05T05:16:55;23.50;62.20
17495;DHT22;8864;51.970;4.614;2022-07-05T05:19:22;23.50;62.30
17495;DHT22;8864;51.970;4.614;2022-07-05T05:21:50;23.50;62.20
17495;DHT22;8864;51.970;4.614;2022-07-05T05:24:17;23.50;62.30
17495;DHT22;8864;51.970;4.614;2022-07-05T05:26:44;23.50;62.40
17495;DHT22;8864;51.970;4.614;2022-07-05T05:29:10;23.50;62.40
17495;DHT22;8864;51.970;4.614;2022-07-05T05:31:37;23.50;62.30
17495;DHT22;8864;51.970;4.614;2022-07-05T05:34:04;23.50;62.20
17495;DHT22;8864;51.970;4.614;2022-07-05T05:36:31;23.50;62.10
17495;DHT22;8864;51.970;4.614;2022-07-05T05:38:59;23.60;62.10
17495;DHT22;8864;51.970;4.614;2022-07-05T05:41:25;23.60;62.00
17495;DHT22;8864;51.970;4.614;2022-07-05T05:43:52;23.50;62.00
17495;DHT22;8864;51.970;4.614;2022-07-05T05:46:19;23.50;62.00
17495;DHT22;8864;51.970;4.614;2022-07-05T05:48:46;23.60;62.00
17495;DHT22;8864;51.970;4.614;2022-07-05T05:51:13;23.50;61.90
17495;DHT22;8864;51.970;4.614;2022-07-05T05:53:40;23.50;61.90
17495;DHT22;8864;51.970;4.614;2022-07-05T05:56:08;23.60;61.90
17495;DHT22;8864;51.970;4.614;2022-07-05T05:58:35;23.50;61.80
17495;DHT22;8864;51.970;4.614;2022-07-05T06:01:01;23.60;61.80
17495;DHT22;8864;51.970;4.614;2022-07-05T06:03:28;23.60;61.80
17495;DHT22;8864;51.970;4.614;2022-07-05T06:05:55;23.60;61.80
17495;DHT22;8864;51.970;4.614;2022-07-05T06:08:22;23.60;61.70
17495;DHT22;8864;51.970;4.614;2022-07-05T06:10:49;23.60;61.60
17495;DHT22;8864;51.970;4.614;2022-07-05T06:13:17;23.60;61.50
17495;DHT22;8864;51.970;4.614;2022-07-05T06:15:45;23.60;61.40
17495;DHT22;8864;51.970;4.614;2022-07-05T06:18:12;23.60;61.40
17495;DHT22;8864;51.970;4.614;2022-07-05T06:20:39;23.60;61.30
17495;DHT22;8864;51.970;4.614;2022-07-05T06:23:06;23.60;62.20
17495;DHT22;8864;51.970;4.614;2022-07-05T06:25:34;23.60;61.30
17495;DHT22;8864;51.970;4.614;2022-07-05T06:28:03;23.60;61.30
17495;DHT22;8864;51.970;4.614;2022-07-05T06:30:33;23.60;61.20
17495;DHT22;8864;51.970;4.614;2022-07-05T06:33:00;23.60;61.10
17495;DHT22;8864;51.970;4.614;2022-07-05T06:35:27;23.60;60.90
17495;DHT22;8864;51.970;4.614;2022-07-05T06:37:55;23.60;61.30
17495;DHT22;8864;51.970;4.614;2022-07-05T06:40:25;23.60;61.90
17495;DHT22;8864;51.970;4.614;2022-07-05T06:42:54;23.70;62.20
17495;DHT22;8864;51.970;4.614;2022-07-05T06:45:21;23.70;61.80
17495;DHT22;8864;51.970;4.614;2022-07-05T06:47:55;23.70;61.40
17495;DHT22;8864;51.970;4.614;2022-07-05T06:50:22;23.70;60.90
17495;DHT22;8864;51.970;4.614;2022-07-05T06:52:49;23.70;60.60
17495;DHT22;8864;51.970;4.614;2022-07-05T06:55:16;23.70;60.30
17495;DHT22;8864;51.970;4.614;2022-07-05T06:57:43;23.70;59.70
17495;DHT22;8864;51.970;4.614;2022-07-05T07:00:11;23.70;59.50
17495;DHT22;8864;51.970;4.614;2022-07-05T07:02:38;23.70;59.40
17495;DHT22;8864;51.970;4.614;2022-07-05T07:05:08;23.70;59.30
17495;DHT22;8864;51.970;4.614;2022-07-05T07:07:35;23.70;59.10
17495;DHT22;8864;51.970;4.614;2022-07-05T07:10:19;23.70;59.00
17495;DHT22;8864;51.970;4.614;2022-07-05T07:12:47;23.70;58.80
17495;DHT22;8864;51.970;4.614;2022-07-05T07:15:14;23.70;58.60
17495;DHT22;8864;51.970;4.614;2022-07-05T07:17:40;23.70;58.40
17495;DHT22;8864;51.970;4.614;2022-07-05T07:20:09;23.80;58.60
17495;DHT22;8864;51.970;4.614;2022-07-05T07:22:36;23.70;58.40
17495;DHT22;8864;51.970;4.614;2022-07-05T07:25:04;23.70;58.10
17495;DHT22;8864;51.970;4.614;2022-07-05T07:27:40;23.70;58.00
17495;DHT22;8864;51.970;4.614;2022-07-05T07:30:09;23.80;57.60
17495;DHT22;8864;51.970;4.614;2022-07-05T07:32:35;23.70;57.40
17495;DHT22;8864;51.970;4.614;2022-07-05T07:35:03;23.80;57.40
17495;DHT22;8864;51.970;4.614;2022-07-05T07:37:31;23.70;57.10
17495;DHT22;8864;51.970;4.614;2022-07-05T07:39:58;23.70;57.70
17495;DHT22;8864;51.970;4.614;2022-07-05T07:42:26;23.70;57.10
17495;DHT22;8864;51.970;4.614;2022-07-05T07:44:53;23.70;57.10
17495;DHT22;8864;51.970;4.614;2022-07-05T07:47:21;23.70;57.30
17495;DHT22;8864;51.970;4.614;2022-07-05T07:49:48;23.80;57.50
17495;DHT22;8864;51.970;4.614;2022-07-05T07:52:15;23.80;57.80
17495;DHT22;8864;51.970;4.614;2022-07-05T07:54:43;23.80;57.70
17495;DHT22;8864;51.970;4.614;2022-07-05T07:57:10;23.80;57.40
17495;DHT22;8864;51.970;4.614;2022-07-05T07:59:37;23.80;57.40
17495;DHT22;8864;51.970;4.614;2022-07-05T08:02:04;23.90;57.60
17495;DHT22;8864;51.970;4.614;2022-07-05T08:04:31;23.90;57.80
17495;DHT22;8864;51.970;4.614;2022-07-05T08:06:58;24.00;57.60
17495;DHT22;8864;51.970;4.614;2022-07-05T08:09:25;24.00;57.50
17495;DHT22;8864;51.970;4.614;2022-07-05T08:11:53;23.90;57.30
17495;DHT22;8864;51.970;4.614;2022-07-05T08:14:20;23.90;56.90
17495;DHT22;8864;51.970;4.614;2022-07-05T08:16:47;23.90;56.80
17495;DHT22;8864;51.970;4.614;2022-07-05T08:19:14;23.80;56.40
17495;DHT22;8864;51.970;4.614;2022-07-05T08:21:59;23.80;56.20
17495;DHT22;8864;51.970;4.614;2022-07-05T08:24:27;23.80;55.30
17495;DHT22;8864;51.970;4.614;2022-07-05T08:26:55;23.80;55.40
17495;DHT22;8864;51.970;4.614;2022-07-05T08:29:22;23.80;55.40
17495;DHT22;8864;51.970;4.614;2022-07-05T08:31:50;23.80;55.30
17495;DHT22;8864;51.970;4.614;2022-07-05T08:34:17;23.80;55.30
17495;DHT22;8864;51.970;4.614;2022-07-05T08:36:44;23.70;55.10
17495;DHT22;8864;51.970;4.614;2022-07-05T08:39:12;23.70;54.80
17495;DHT22;8864;51.970;4.614;2022-07-05T08:41:41;23.70;55.00
17495;DHT22;8864;51.970;4.614;2022-07-05T08:44:09;23.70;55.20
17495;DHT22;8864;51.970;4.614;2022-07-05T08:46:38;23.70;55.20
17495;DHT22;8864;51.970;4.614;2022-07-05T08:49:05;23.80;55.30
17495;DHT22;8864;51.970;4.614;2022-07-05T08:51:35;23.70;54.90
17495;DHT22;8864;51.970;4.614;2022-07-05T08:54:03;23.70;55.20
17495;DHT22;8864;51.970;4.614;2022-07-05T08:56:30;23.80;55.60
17495;DHT22;8864;51.970;4.614;2022-07-05T08:58:57;23.80;55.80
17495;DHT22;8864;51.970;4.614;2022-07-05T09:01:25;23.80;56.00
17495;DHT22;8864;51.970;4.614;2022-07-05T09:03:59;23.80;55.50
17495;DHT22;8864;51.970;4.614;2022-07-05T09:06:27;23.90;55.80
17495;DHT22;8864;51.970;4.614;2022-07-05T09:08:55;23.80;55.80
17495;DHT22;8864;51.970;4.614;2022-07-05T09:11:24;23.90;56.00
17495;DHT22;8864;51.970;4.614;2022-07-05T09:13:52;23.90;56.00
17495;DHT22;8864;51.970;4.614;2022-07-05T09:16:18;23.90;55.90
17495;DHT22;8864;51.970;4.614;2022-07-05T09:18:48;24.00;55.80
17495;DHT22;8864;51.970;4.614;2022-07-05T09:21:17;24.00;56.60
17495;DHT22;8864;51.970;4.614;2022-07-05T09:23:44;23.90;55.20
17495;DHT22;8864;51.970;4.614;2022-07-05T09:26:11;24.00;55.20
17495;DHT22;8864;51.970;4.614;2022-07-05T09:28:54;24.00;54.80
17495;DHT22;8864;51.970;4.614;2022-07-05T09:31:29;24.00;54.60
17495;DHT22;8864;51.970;4.614;2022-07-05T09:34:08;24.00;54.70
17495;DHT22;8864;51.970;4.614;2022-07-05T09:36:48;24.00;55.00
17495;DHT22;8864;51.970;4.614;2022-07-05T09:39:15;24.00;54.60
17495;DHT22;8864;51.970;4.614;2022-07-05T09:41:42;24.00;54.30
17495;DHT22;8864;51.970;4.614;2022-07-05T09:44:09;23.90;54.30
17495;DHT22;8864;51.970;4.614;2022-07-05T09:46:36;23.90;54.30
17495;DHT22;8864;51.970;4.614;2022-07-05T09:49:03;23.90;54.30
17495;DHT22;8864;51.970;4.614;2022-07-05T09:51:47;23.90;54.50
17495;DHT22;8864;51.970;4.614;2022-07-05T09:54:14;24.00;54.70
17495;DHT22;8864;51.970;4.614;2022-07-05T09:56:45;23.90;54.70
17495;DHT22;8864;51.970;4.614;2022-07-05T09:59:13;23.90;54.80
17495;DHT22;8864;51.970;4.614;2022-07-05T10:01:40;24.00;54.70
17495;DHT22;8864;51.970;4.614;2022-07-05T10:04:08;23.90;54.70
17495;DHT22;8864;51.970;4.614;2022-07-05T10:06:36;24.00;54.80
17495;DHT22;8864;51.970;4.614;2022-07-05T10:09:04;24.00;54.60
17495;DHT22;8864;51.970;4.614;2022-07-05T10:11:31;24.00;54.50
17495;DHT22;8864;51.970;4.614;2022-07-05T10:13:58;24.00;54.40
17495;DHT22;8864;51.970;4.614;2022-07-05T10:16:25;24.00;54.20
17495;DHT22;8864;51.970;4.614;2022-07-05T10:18:54;24.00;54.30
17495;DHT22;8864;51.970;4.614;2022-07-05T10:21:23;24.00;53.90
17495;DHT22;8864;51.970;4.614;2022-07-05T10:23:52;24.00;53.70
17495;DHT22;8864;51.970;4.614;2022-07-05T10:26:22;24.00;53.70
17495;DHT22;8864;51.970;4.614;2022-07-05T10:28:52;24.00;53.60
17495;DHT22;8864;51.970;4.614;2022-07-05T10:31:19;24.00;53.60
17495;DHT22;8864;51.970;4.614;2022-07-05T10:33:46;24.00;53.60
17495;DHT22;8864;51.970;4.614;2022-07-05T10:36:13;24.00;53.60
17495;DHT22;8864;51.970;4.614;2022-07-05T10:38:42;24.00;54.10
17495;DHT22;8864;51.970;4.614;2022-07-05T10:41:12;24.10;53.90
17495;DHT22;8864;51.970;4.614;2022-07-05T10:43:40;24.10;53.80
17495;DHT22;8864;51.970;4.614;2022-07-05T10:46:07;24.10;53.80
17495;DHT22;8864;51.970;4.614;2022-07-05T10:48:34;24.10;53.90
17495;DHT22;8864;51.970;4.614;2022-07-05T10:51:14;24.00;53.90
17495;DHT22;8864;51.970;4.614;2022-07-05T10:54:00;24.10;54.70
17495;DHT22;8864;51.970;4.614;2022-07-05T10:56:29;24.10;54.60
17495;DHT22;8864;51.970;4.614;2022-07-05T10:59:07;24.10;54.20
17495;DHT22;8864;51.970;4.614;2022-07-05T11:01:40;24.10;53.70
17495;DHT22;8864;51.970;4.614;2022-07-05T11:04:15;24.10;53.60
17495;DHT22;8864;51.970;4.614;2022-07-05T11:06:43;24.10;53.20
17495;DHT22;8864;51.970;4.614;2022-07-05T11:09:17;24.10;53.00
17495;DHT22;8864;51.970;4.614;2022-07-05T11:11:46;24.10;53.10
17495;DHT22;8864;51.970;4.614;2022-07-05T11:14:31;24.10;52.90
17495;DHT22;8864;51.970;4.614;2022-07-05T11:17:24;24.10;52.50
17495;DHT22;8864;51.970;4.614;2022-07-05T11:25:24;24.10;52.00
17495;DHT22;8864;51.970;4.614;2022-07-05T11:28:06;24.10;52.00
17495;DHT22;8864;51.970;4.614;2022-07-05T11:31:00;24.10;52.20
17495;DHT22;8864;51.970;4.614;2022-07-05T11:33:35;24.10;52.50
17495;DHT22;8864;51.970;4.614;2022-07-05T11:36:03;24.10;52.00
17495;DHT22;8864;51.970;4.614;2022-07-05T11:38:30;24.10;51.50
17495;DHT22;8864;51.970;4.614;2022-07-05T11:41:11;24.10;51.10
17495;DHT22;8864;51.970;4.614;2022-07-05T11:43:40;24.10;50.80
17495;DHT22;8864;51.970;4.614;2022-07-05T11:46:07;24.10;50.80
17495;DHT22;8864;51.970;4.614;2022-07-05T11:48:35;24.10;50.80
17495;DHT22;8864;51.970;4.614;2022-07-05T11:51:12;24.10;50.60
17495;DHT22;8864;51.970;4.614;2022-07-05T11:53:40;24.10;50.80
17495;DHT22;8864;51.970;4.614;2022-07-05T11:56:08;24.20;51.10
17495;DHT22;8864;51.970;4.614;2022-07-05T11:58:35;24.20;52.00
17495;DHT22;8864;51.970;4.614;2022-07-05T12:01:04;24.20;51.30
17495;DHT22;8864;51.970;4.614;2022-07-05T12:03:31;24.20;50.80
17495;DHT22;8864;51.970;4.614;2022-07-05T12:05:58;24.30;50.40
17495;DHT22;8864;51.970;4.614;2022-07-05T12:08:25;24.30;50.10
17495;DHT22;8864;51.970;4.614;2022-07-05T12:10:52;24.30;49.80
17495;DHT22;8864;51.970;4.614;2022-07-05T12:13:44;24.30;49.60
17495;DHT22;8864;51.970;4.614;2022-07-05T12:16:13;24.30;49.20
17495;DHT22;8864;51.970;4.614;2022-07-05T12:18:47;24.30;49.30
17495;DHT22;8864;51.970;4.614;2022-07-05T12:21:14;24.30;49.10
17495;DHT22;8864;51.970;4.614;2022-07-05T12:23:41;24.30;49.50
17495;DHT22;8864;51.970;4.614;2022-07-05T12:26:08;24.30;49.50
17495;DHT22;8864;51.970;4.614;2022-07-05T12:28:35;24.30;49.50
17495;DHT22;8864;51.970;4.614;2022-07-05T12:31:16;24.30;49.30
17495;DHT22;8864;51.970;4.614;2022-07-05T12:33:43;24.30;49.30
17495;DHT22;8864;51.970;4.614;2022-07-05T12:36:11;24.30;49.20
17495;DHT22;8864;51.970;4.614;2022-07-05T12:38:38;24.30;49.00
17495;DHT22;8864;51.970;4.614;2022-07-05T12:41:05;24.30;49.00
17495;DHT22;8864;51.970;4.614;2022-07-05T12:43:32;24.30;49.40
17495;DHT22;8864;51.970;4.614;2022-07-05T12:46:00;24.30;48.90
17495;DHT22;8864;51.970;4.614;2022-07-05T12:48:32;24.20;49.00
17495;DHT22;8864;51.970;4.614;2022-07-05T12:50:59;24.20;49.30
17495;DHT22;8864;51.970;4.614;2022-07-05T12:53:27;24.30;49.20
17495;DHT22;8864;51.970;4.614;2022-07-05T12:56:12;24.30;49.50
17495;DHT22;8864;51.970;4.614;2022-07-05T12:58:58;24.30;49.50
17495;DHT22;8864;51.970;4.614;2022-07-05T13:01:26;24.30;49.20
17495;DHT22;8864;51.970;4.614;2022-07-05T13:04:02;24.30;49.50
17495;DHT22;8864;51.970;4.614;2022-07-05T13:06:49;24.30;49.00
17495;DHT22;8864;51.970;4.614;2022-07-05T13:09:30;24.30;48.70
17495;DHT22;8864;51.970;4.614;2022-07-05T13:12:09;24.30;48.80
17495;DHT22;8864;51.970;4.614;2022-07-05T13:14:37;24.30;48.80
17495;DHT22;8864;51.970;4.614;2022-07-05T13:17:05;24.30;48.70
17495;DHT22;8864;51.970;4.614;2022-07-05T13:19:34;24.30;49.10
17495;DHT22;8864;51.970;4.614;2022-07-05T13:22:01;24.30;48.80
17495;DHT22;8864;51.970;4.614;2022-07-05T13:24:28;24.30;48.70
17495;DHT22;8864;51.970;4.614;2022-07-05T13:26:55;24.30;49.00
17495;DHT22;8864;51.970;4.614;2022-07-05T13:29:22;24.40;48.90
17495;DHT22;8864;51.970;4.614;2022-07-05T13:31:50;24.40;48.60
17495;DHT22;8864;51.970;4.614;2022-07-05T13:34:17;24.40;48.70
17495;DHT22;8864;51.970;4.614;2022-07-05T13:36:45;24.40;49.00
17495;DHT22;8864;51.970;4.614;2022-07-05T13:39:13;24.40;49.10
17495;DHT22;8864;51.970;4.614;2022-07-05T13:41:39;24.40;49.50
17495;DHT22;8864;51.970;4.614;2022-07-05T13:44:06;24.40;50.00
17495;DHT22;8864;51.970;4.614;2022-07-05T13:46:33;24.40;50.30
17495;DHT22;8864;51.970;4.614;2022-07-05T13:49:00;24.40;50.80
17495;DHT22;8864;51.970;4.614;2022-07-05T13:51:27;24.40;50.90
17495;DHT22;8864;51.970;4.614;2022-07-05T13:53:55;24.40;51.10
17495;DHT22;8864;51.970;4.614;2022-07-05T13:56:22;24.40;51.20
17495;DHT22;8864;51.970;4.614;2022-07-05T13:58:49;24.40;51.30
17495;DHT22;8864;51.970;4.614;2022-07-05T14:01:16;24.40;51.40
17495;DHT22;8864;51.970;4.614;2022-07-05T14:03:45;24.50;51.60
17495;DHT22;8864;51.970;4.614;2022-07-05T14:06:12;24.40;51.60
17495;DHT22;8864;51.970;4.614;2022-07-05T14:08:39;24.40;51.80
17495;DHT22;8864;51.970;4.614;2022-07-05T14:11:09;24.50;52.00
17495;DHT22;8864;51.970;4.614;2022-07-05T14:13:38;24.60;51.90
17495;DHT22;8864;51.970;4.614;2022-07-05T14:16:05;24.50;51.50
17495;DHT22;8864;51.970;4.614;2022-07-05T14:18:33;24.60;51.10
17495;DHT22;8864;51.970;4.614;2022-07-05T14:21:00;24.60;51.10
17495;DHT22;8864;51.970;4.614;2022-07-05T14:23:27;24.60;51.30
17495;DHT22;8864;51.970;4.614;2022-07-05T14:25:54;24.60;51.60
17495;DHT22;8864;51.970;4.614;2022-07-05T14:28:22;24.60;51.50
17495;DHT22;8864;51.970;4.614;2022-07-05T14:30:49;24.60;51.50
17495;DHT22;8864;51.970;4.614;2022-07-05T14:33:16;24.60;51.30
17495;DHT22;8864;51.970;4.614;2022-07-05T14:35:43;24.60;51.10
17495;DHT22;8864;51.970;4.614;2022-07-05T14:38:10;24.60;50.90
17495;DHT22;8864;51.970;4.614;2022-07-05T14:40:36;24.60;51.00
17495;DHT22;8864;51.970;4.614;2022-07-05T14:43:03;24.60;50.70
17495;DHT22;8864;51.970;4.614;2022-07-05T14:45:32;24.60;50.30
17495;DHT22;8864;51.970;4.614;2022-07-05T14:47:58;24.60;50.60
17495;DHT22;8864;51.970;4.614;2022-07-05T14:50:25;24.50;50.90
17495;DHT22;8864;51.970;4.614;2022-07-05T14:52:52;24.60;50.90
17495;DHT22;8864;51.970;4.614;2022-07-05T14:55:19;24.50;50.90
17495;DHT22;8864;51.970;4.614;2022-07-05T14:57:46;24.60;50.80
17495;DHT22;8864;51.970;4.614;2022-07-05T15:00:15;24.60;50.90
17495;DHT22;8864;51.970;4.614;2022-07-05T15:02:43;24.60;50.80
17495;DHT22;8864;51.970;4.614;2022-07-05T15:05:10;24.60;50.40
17495;DHT22;8864;51.970;4.614;2022-07-05T15:07:38;24.60;50.20
17495;DHT22;8864;51.970;4.614;2022-07-05T15:10:06;24.60;50.10
17495;DHT22;8864;51.970;4.614;2022-07-05T15:12:33;24.60;50.20
17495;DHT22;8864;51.970;4.614;2022-07-05T15:15:00;24.60;50.30
17495;DHT22;8864;51.970;4.614;2022-07-05T15:17:27;24.60;50.30
17495;DHT22;8864;51.970;4.614;2022-07-05T15:19:55;24.60;50.60
17495;DHT22;8864;51.970;4.614;2022-07-05T15:22:22;24.60;50.50
17495;DHT22;8864;51.970;4.614;2022-07-05T15:24:51;24.60;50.60
17495;DHT22;8864;51.970;4.614;2022-07-05T15:27:18;24.50;50.00
17495;DHT22;8864;51.970;4.614;2022-07-05T15:29:45;24.40;50.60
17495;DHT22;8864;51.970;4.614;2022-07-05T15:32:12;24.40;50.30
17495;DHT22;8864;51.970;4.614;2022-07-05T15:34:39;24.40;50.30
17495;DHT22;8864;51.970;4.614;2022-07-05T15:37:07;24.40;50.80
17495;DHT22;8864;51.970;4.614;2022-07-05T15:39:36;24.40;50.80
17495;DHT22;8864;51.970;4.614;2022-07-05T15:42:05;24.30;51.70
17495;DHT22;8864;51.970;4.614;2022-07-05T15:44:31;24.30;51.10
17495;DHT22;8864;51.970;4.614;2022-07-05T15:46:59;24.30;51.40
17495;DHT22;8864;51.970;4.614;2022-07-05T15:49:26;24.30;51.50
17495;DHT22;8864;51.970;4.614;2022-07-05T15:51:53;24.20;51.70
17495;DHT22;8864;51.970;4.614;2022-07-05T15:54:21;24.20;51.90
17495;DHT22;8864;51.970;4.614;2022-07-05T15:56:48;24.10;51.80
17495;DHT22;8864;51.970;4.614;2022-07-05T15:59:15;24.10;51.90
17495;DHT22;8864;51.970;4.614;2022-07-05T16:01:41;24.10;52.10